createdAt,value
2019-05-16T00:00:05.799Z,8.25
2019-05-16T00:01:05.014Z,8.25
2019-05-16T00:02:05.254Z,8.25
2019-05-16T00:03:07.888Z,8.25
2019-05-16T00:04:05.648Z,8.25
2019-05-16T00:05:08.227Z,8.25
2019-05-16T00:06:05.553Z,8.25
2019-05-16T00:07:07.973Z,8.25
2019-05-16T00:08:05.986Z,8.25
2019-05-16T00:09:05.188Z,8.25
2019-05-16T00:10:05.405Z,8.25
2019-05-16T00:11:05.476Z,8.25
2019-05-16T00:12:05.569Z,8.25
2019-05-16T00:13:08.355Z,8.25
2019-05-16T00:14:05.079Z,8.25
2019-05-16T00:15:05.149Z,8.25
2019-05-16T00:16:07.836Z,8.25
2019-05-16T00:17:05.081Z,8.25
2019-05-16T00:18:05.148Z,8.25
2019-05-16T00:19:05.321Z,8.25
2019-05-16T00:20:05.552Z,8.31
2019-05-16T00:21:05.723Z,8.31
2019-05-16T00:22:05.391Z,8.31
2019-05-16T00:23:07.383Z,8.25
2019-05-16T00:24:05.320Z,8.25
2019-05-16T00:25:05.553Z,8.25
2019-05-16T00:26:05.240Z,8.25
2019-05-16T00:27:05.186Z,8.25
2019-05-16T00:28:05.243Z,8.25
2019-05-16T00:29:07.507Z,8.25
2019-05-16T00:30:05.249Z,8.25
2019-05-16T00:31:05.494Z,8.25
2019-05-16T00:32:05.552Z,8.25
2019-05-16T00:33:08.246Z,8.25
2019-05-16T00:34:05.157Z,8.25
2019-05-16T00:35:05.489Z,8.25
2019-05-16T00:36:06.630Z,8.25
2019-05-16T00:37:05.239Z,8.25
2019-05-16T00:38:07.824Z,8.25
2019-05-16T00:39:05.807Z,8.19
2019-05-16T00:40:08.062Z,8.19
2019-05-16T00:41:05.712Z,8.19
2019-05-16T00:42:05.803Z,8.19
2019-05-16T00:43:08.005Z,8.19
2019-05-16T00:44:05.713Z,8.19
2019-05-16T00:45:05.966Z,8.19
2019-05-16T00:46:05.090Z,8.19
2019-05-16T00:47:05.157Z,8.19
2019-05-16T00:48:05.322Z,8.19
2019-05-16T00:49:05.560Z,8.19
2019-05-16T00:50:05.635Z,8.19
2019-05-16T00:51:07.796Z,8.19
2019-05-16T00:52:07.302Z,8.19
2019-05-16T00:53:05.478Z,8.19
2019-05-16T00:54:05.630Z,8.19
2019-05-16T00:55:05.791Z,8.19
2019-05-16T00:56:07.847Z,8.19
2019-05-16T00:57:05.331Z,8.12
2019-05-16T00:58:05.314Z,8.19
2019-05-16T00:59:05.320Z,8.19
2019-05-16T01:00:05.393Z,8.19
2019-05-16T01:01:05.584Z,8.12
2019-05-16T01:02:05.712Z,8.12
2019-05-16T01:03:05.558Z,8.12
2019-05-16T01:04:07.864Z,8.12
2019-05-16T01:05:05.077Z,8.12
2019-05-16T01:06:15.615Z,8.12
2019-05-16T01:07:05.109Z,8.12
2019-05-16T01:08:05.151Z,8.12
2019-05-16T01:09:05.397Z,8.12
2019-05-16T01:10:05.565Z,8.12
2019-05-16T01:11:07.769Z,8.12
2019-05-16T01:12:05.309Z,8.12
2019-05-16T01:13:07.516Z,8.12
2019-05-16T01:14:04.981Z,8.12
2019-05-16T01:15:05.156Z,8.12
2019-05-16T01:16:08.561Z,8.12
2019-05-16T01:17:05.086Z,8.12
2019-05-16T01:18:07.845Z,8.12
2019-05-16T01:19:05.239Z,8.06
2019-05-16T01:20:08.325Z,8.06
2019-05-16T01:21:07.691Z,8.06
2019-05-16T01:22:08.243Z,8.06
2019-05-16T01:23:08.707Z,8.06
2019-05-16T01:24:05.260Z,8.06
2019-05-16T01:25:05.405Z,8.06
2019-05-16T01:26:07.483Z,8.06
2019-05-16T01:27:05.167Z,8.06
2019-05-16T01:28:05.159Z,8.06
2019-05-16T01:29:05.573Z,8.00
2019-05-16T01:30:05.742Z,8.00
2019-05-16T01:31:05.172Z,8.00
2019-05-16T01:32:05.406Z,8.00
2019-05-16T01:33:05.880Z,8.00
2019-05-16T01:34:07.641Z,8.00
2019-05-16T01:35:08.189Z,8.00
2019-05-16T01:36:05.586Z,8.00
2019-05-16T01:37:05.469Z,8.00
2019-05-16T01:38:05.808Z,8.00
2019-05-16T01:39:05.078Z,8.00
2019-05-16T01:40:05.264Z,8.00
2019-05-16T01:41:05.475Z,8.00
2019-05-16T01:42:05.248Z,8.00
2019-05-16T01:43:05.479Z,8.00
2019-05-16T01:44:05.162Z,8.00
2019-05-16T01:45:05.526Z,8.00
2019-05-16T01:46:05.575Z,8.00
2019-05-16T01:47:05.663Z,8.00
2019-05-16T01:48:08.031Z,8.00
2019-05-16T01:49:08.073Z,8.00
2019-05-16T01:50:05.716Z,8.00
2019-05-16T01:51:05.157Z,8.00
2019-05-16T01:52:05.249Z,8.00
2019-05-16T01:53:05.246Z,8.00
2019-05-16T01:54:05.485Z,8.00
2019-05-16T01:55:05.076Z,8.00
2019-05-16T01:56:05.879Z,8.00
2019-05-16T01:57:07.991Z,8.00
2019-05-16T01:58:07.539Z,8.00
2019-05-16T01:59:05.567Z,8.00
2019-05-16T02:00:08.167Z,8.00
2019-05-16T02:01:12.873Z,8.00
2019-05-16T02:02:08.175Z,8.00
2019-05-16T02:03:05.564Z,7.94
2019-05-16T02:04:05.898Z,7.94
2019-05-16T02:05:08.235Z,8.00
2019-05-16T02:06:05.407Z,8.00
2019-05-16T02:07:05.248Z,7.94
2019-05-16T02:08:05.244Z,7.94
2019-05-16T02:09:08.018Z,7.94
2019-05-16T02:10:05.401Z,7.94
2019-05-16T02:11:05.405Z,7.94
2019-05-16T02:12:08.091Z,7.94
2019-05-16T02:13:05.334Z,7.94
2019-05-16T02:14:05.562Z,7.94
2019-05-16T02:15:05.237Z,7.94
2019-05-16T02:16:05.492Z,7.94
2019-05-16T02:17:05.573Z,7.94
2019-05-16T02:18:08.129Z,7.94
2019-05-16T02:19:05.567Z,7.94
2019-05-16T02:20:05.569Z,7.94
2019-05-16T02:21:07.725Z,7.88
2019-05-16T02:22:05.402Z,7.88
2019-05-16T02:23:05.507Z,7.88
2019-05-16T02:24:05.488Z,7.88
2019-05-16T02:25:07.631Z,7.88
2019-05-16T02:26:07.943Z,7.88
2019-05-16T02:27:05.582Z,7.88
2019-05-16T02:28:05.088Z,7.88
2019-05-16T02:29:05.882Z,7.88
2019-05-16T02:30:06.031Z,7.88
2019-05-16T02:31:06.031Z,7.88
2019-05-16T02:32:05.974Z,7.88
2019-05-16T02:33:05.483Z,7.88
2019-05-16T02:34:05.188Z,7.88
2019-05-16T02:35:05.790Z,7.88
2019-05-16T02:36:10.663Z,7.88
2019-05-16T02:37:19.861Z,7.88
2019-05-16T02:38:05.386Z,7.88
2019-05-16T02:39:05.890Z,7.88
2019-05-16T02:40:05.819Z,7.88
2019-05-16T02:41:05.810Z,7.88
2019-05-16T02:42:05.984Z,7.88
2019-05-16T02:43:05.174Z,7.88
2019-05-16T02:44:05.483Z,7.88
2019-05-16T02:45:05.124Z,7.88
2019-05-16T02:46:05.406Z,7.88
2019-05-16T02:47:05.984Z,7.88
2019-05-16T02:48:05.970Z,7.88
2019-05-16T02:49:05.479Z,7.81
2019-05-16T02:50:05.792Z,7.88
2019-05-16T02:51:05.969Z,7.88
2019-05-16T02:52:05.476Z,7.88
2019-05-16T02:53:05.235Z,7.88
2019-05-16T02:54:05.639Z,7.88
2019-05-16T02:55:05.805Z,7.88
2019-05-16T02:56:05.553Z,7.88
2019-05-16T02:57:05.703Z,7.88
2019-05-16T02:58:05.801Z,7.88
2019-05-16T02:59:05.814Z,7.88
2019-05-16T03:00:05.883Z,7.88
2019-05-16T03:01:05.179Z,7.88
2019-05-16T03:02:05.497Z,7.88
2019-05-16T03:03:05.552Z,7.88
2019-05-16T03:04:06.061Z,7.88
2019-05-16T03:05:05.000Z,7.88
2019-05-16T03:06:05.354Z,7.88
2019-05-16T03:07:05.000Z,7.88
2019-05-16T03:08:05.731Z,7.88
2019-05-16T03:09:05.473Z,7.81
2019-05-16T03:10:05.187Z,7.88
2019-05-16T03:11:06.056Z,7.88
2019-05-16T03:12:05.257Z,7.81
2019-05-16T03:13:05.489Z,7.81
2019-05-16T03:14:06.022Z,7.88
2019-05-16T03:15:05.243Z,7.88
2019-05-16T03:16:05.320Z,7.81
2019-05-16T03:17:05.474Z,7.88
2019-05-16T03:18:06.051Z,7.88
2019-05-16T03:19:05.883Z,7.88
2019-05-16T03:20:06.129Z,7.81
2019-05-16T03:21:05.338Z,7.88
2019-05-16T03:22:05.752Z,7.81
2019-05-16T03:23:05.979Z,7.81
2019-05-16T03:24:05.882Z,7.81
2019-05-16T03:25:05.654Z,7.81
2019-05-16T03:26:05.790Z,7.81
2019-05-16T03:27:05.724Z,7.81
2019-05-16T03:28:05.253Z,7.81
2019-05-16T03:29:05.413Z,7.81
2019-05-16T03:30:05.740Z,7.81
2019-05-16T03:31:06.394Z,7.81
2019-05-16T03:32:06.083Z,7.81
2019-05-16T03:33:05.820Z,7.81
2019-05-16T03:34:06.813Z,7.81
2019-05-16T03:35:06.102Z,7.81
2019-05-16T03:36:05.746Z,7.81
2019-05-16T03:37:05.580Z,7.81
2019-05-16T03:38:06.259Z,7.88
2019-05-16T03:39:05.713Z,7.81
2019-05-16T03:40:05.182Z,7.81
2019-05-16T03:41:05.318Z,7.81
2019-05-16T03:42:05.577Z,7.81
2019-05-16T03:43:05.944Z,7.88
2019-05-16T03:44:06.061Z,7.88
2019-05-16T03:45:05.180Z,7.88
2019-05-16T03:46:05.252Z,7.81
2019-05-16T03:47:05.409Z,7.88
2019-05-16T03:48:05.666Z,7.88
2019-05-16T03:49:06.053Z,7.88
2019-05-16T03:50:06.512Z,7.81
2019-05-16T03:51:05.413Z,7.81
2019-05-16T03:52:06.049Z,7.81
2019-05-16T03:53:05.789Z,7.81
2019-05-16T03:54:05.170Z,7.81
2019-05-16T03:55:05.720Z,7.81
2019-05-16T03:56:06.068Z,7.81
2019-05-16T03:57:05.287Z,7.81
2019-05-16T03:58:05.166Z,7.81
2019-05-16T03:59:05.239Z,7.81
2019-05-16T04:00:05.409Z,7.81
2019-05-16T04:01:05.474Z,7.81
2019-05-16T04:02:06.034Z,7.81
2019-05-16T04:03:06.316Z,7.88
2019-05-16T04:04:05.760Z,7.81
2019-05-16T04:05:05.778Z,7.81
2019-05-16T04:06:05.978Z,7.81
2019-05-16T04:07:05.088Z,7.81
2019-05-16T04:08:14.581Z,7.81
2019-05-16T04:09:05.161Z,7.88
2019-05-16T04:10:05.416Z,7.88
2019-05-16T04:11:05.956Z,7.81
2019-05-16T04:12:05.328Z,7.88
2019-05-16T04:13:05.336Z,7.88
2019-05-16T04:14:05.316Z,7.81
2019-05-16T04:15:05.337Z,7.81
2019-05-16T04:16:06.134Z,7.88
2019-05-16T04:17:05.240Z,7.88
2019-05-16T04:18:05.393Z,7.81
2019-05-16T04:19:05.707Z,7.81
2019-05-16T04:20:05.803Z,7.81
2019-05-16T04:21:05.321Z,7.81
2019-05-16T04:22:05.971Z,7.88
2019-05-16T04:23:05.085Z,7.81
2019-05-16T04:24:05.323Z,7.81
2019-05-16T04:25:06.043Z,7.81
2019-05-16T04:26:05.877Z,7.81
2019-05-16T04:27:05.817Z,7.81
2019-05-16T04:28:05.993Z,7.81
2019-05-16T04:29:06.042Z,7.81
2019-05-16T04:30:05.433Z,7.81
2019-05-16T04:31:05.477Z,7.81
2019-05-16T04:32:05.641Z,7.81
2019-05-16T04:33:07.168Z,7.81
2019-05-16T04:34:05.565Z,7.81
2019-05-16T04:35:05.966Z,7.81
2019-05-16T04:36:06.050Z,7.81
2019-05-16T04:37:05.490Z,7.81
2019-05-16T04:38:05.557Z,7.81
2019-05-16T04:39:05.566Z,7.81
2019-05-16T04:40:05.560Z,7.81
2019-05-16T04:41:05.177Z,7.88
2019-05-16T04:42:05.402Z,8.00
2019-05-16T04:43:05.493Z,7.94
2019-05-16T04:44:05.574Z,7.94
2019-05-16T04:45:05.263Z,7.94
2019-05-16T04:46:05.079Z,7.88
2019-05-16T04:47:05.578Z,7.88
2019-05-16T04:48:05.580Z,7.88
2019-05-16T04:49:05.554Z,7.88
2019-05-16T04:50:05.743Z,7.88
2019-05-16T04:51:05.491Z,7.88
2019-05-16T04:52:05.721Z,7.88
2019-05-16T04:53:05.716Z,7.88
2019-05-16T04:54:07.053Z,7.88
2019-05-16T04:55:05.771Z,7.88
2019-05-16T04:56:05.820Z,7.88
2019-05-16T04:57:05.965Z,7.88
2019-05-16T04:58:05.104Z,7.94
2019-05-16T04:59:05.337Z,8.00
2019-05-16T05:00:05.741Z,7.94
2019-05-16T05:01:05.867Z,7.94
2019-05-16T05:02:05.631Z,7.94
2019-05-16T05:03:05.177Z,7.88
2019-05-16T05:04:10.511Z,7.81
2019-05-16T05:05:05.091Z,8.00
2019-05-16T05:06:05.565Z,8.00
2019-05-16T05:07:05.580Z,8.00
2019-05-16T05:08:05.734Z,8.00
2019-05-16T05:09:06.213Z,8.12
2019-05-16T05:10:06.056Z,8.31
2019-05-16T05:11:05.157Z,8.25
2019-05-16T05:12:05.966Z,8.25
2019-05-16T05:13:05.326Z,8.25
2019-05-16T05:14:06.063Z,8.19
2019-05-16T05:15:05.080Z,8.19
2019-05-16T05:16:05.491Z,8.25
2019-05-16T05:17:05.829Z,8.25
2019-05-16T05:18:05.106Z,8.19
2019-05-16T05:19:05.309Z,8.19
2019-05-16T05:20:05.721Z,8.44
2019-05-16T05:21:05.322Z,8.38
2019-05-16T05:22:05.543Z,8.31
2019-05-16T05:23:05.079Z,8.31
2019-05-16T05:24:05.399Z,8.31
2019-05-16T05:25:05.474Z,8.25
2019-05-16T05:26:06.357Z,8.25
2019-05-16T05:27:05.953Z,8.44
2019-05-16T05:28:05.095Z,8.44
2019-05-16T05:29:05.802Z,8.38
2019-05-16T05:30:06.257Z,8.56
2019-05-16T05:31:05.259Z,8.62
2019-05-16T05:32:05.614Z,8.56
2019-05-16T05:33:05.169Z,8.50
2019-05-16T05:34:05.670Z,8.50
2019-05-16T05:35:05.888Z,8.44
2019-05-16T05:36:06.009Z,8.38
2019-05-16T05:37:05.406Z,8.38
2019-05-16T05:38:05.989Z,8.38
2019-05-16T05:39:11.046Z,8.38
2019-05-16T05:40:05.899Z,8.38
2019-05-16T05:41:05.170Z,8.44
2019-05-16T05:42:05.162Z,8.38
2019-05-16T05:43:05.409Z,8.38
2019-05-16T05:44:05.889Z,8.50
2019-05-16T05:45:05.154Z,8.44
2019-05-16T05:46:05.726Z,8.44
2019-05-16T05:47:05.416Z,8.38
2019-05-16T05:48:05.334Z,8.38
2019-05-16T05:49:05.817Z,8.38
2019-05-16T05:50:05.880Z,8.38
2019-05-16T05:51:05.168Z,8.38
2019-05-16T05:52:05.509Z,8.38
2019-05-16T05:53:05.488Z,8.38
2019-05-16T05:54:05.726Z,8.31
2019-05-16T05:55:05.875Z,8.38
2019-05-16T05:56:06.079Z,8.31
2019-05-16T05:57:05.373Z,8.31
2019-05-16T05:58:05.878Z,8.31
2019-05-16T05:59:05.570Z,8.31
2019-05-16T06:00:05.648Z,8.31
2019-05-16T06:01:05.976Z,8.31
2019-05-16T06:02:05.322Z,8.31
2019-05-16T06:03:05.869Z,8.31
2019-05-16T06:04:06.043Z,8.31
2019-05-16T06:05:05.959Z,8.31
2019-05-16T06:06:05.484Z,8.31
2019-05-16T06:07:05.798Z,8.25
2019-05-16T06:08:05.958Z,8.31
2019-05-16T06:09:05.181Z,8.31
2019-05-16T06:10:05.250Z,8.31
2019-05-16T06:11:05.928Z,8.31
2019-05-16T06:12:07.570Z,8.31
2019-05-16T06:13:05.735Z,8.31
2019-05-16T06:14:05.496Z,8.31
2019-05-16T06:15:08.653Z,8.38
2019-05-16T06:16:05.326Z,8.38
2019-05-16T06:17:05.503Z,8.38
2019-05-16T06:18:05.738Z,8.38
2019-05-16T06:19:05.957Z,8.38
2019-05-16T06:20:05.339Z,8.38
2019-05-16T06:21:05.673Z,8.38
2019-05-16T06:22:06.102Z,8.31
2019-05-16T06:23:05.239Z,8.38
2019-05-16T06:24:05.096Z,8.56
2019-05-16T06:25:05.951Z,8.44
2019-05-16T06:26:06.577Z,8.50
2019-05-16T06:27:05.479Z,8.56
2019-05-16T06:28:05.887Z,8.50
2019-05-16T06:29:06.047Z,8.56
2019-05-16T06:30:05.632Z,8.50
2019-05-16T06:31:05.247Z,8.50
2019-05-16T06:32:05.728Z,8.44
2019-05-16T06:33:05.637Z,8.44
2019-05-16T06:34:08.676Z,8.50
2019-05-16T06:35:05.881Z,8.56
2019-05-16T06:36:06.034Z,8.56
2019-05-16T06:37:05.315Z,8.50
2019-05-16T06:38:05.403Z,8.44
2019-05-16T06:39:05.538Z,8.38
2019-05-16T06:40:05.074Z,8.38
2019-05-16T06:41:05.797Z,8.31
2019-05-16T06:42:09.781Z,8.31
2019-05-16T06:43:05.573Z,8.25
2019-05-16T06:44:06.123Z,8.25
2019-05-16T06:45:05.246Z,8.19
2019-05-16T06:46:05.731Z,8.19
2019-05-16T06:47:15.643Z,8.19
2019-05-16T06:48:05.169Z,8.19
2019-05-16T06:49:05.082Z,8.19
2019-05-16T06:50:05.162Z,8.19
2019-05-16T06:51:05.648Z,8.19
2019-05-16T06:52:05.435Z,8.12
2019-05-16T06:53:05.479Z,8.12
2019-05-16T06:54:05.711Z,8.12
2019-05-16T06:55:05.909Z,8.12
2019-05-16T06:56:06.048Z,8.12
2019-05-16T06:57:05.306Z,8.12
2019-05-16T06:58:05.170Z,8.12
2019-05-16T06:59:05.151Z,8.06
2019-05-16T07:00:05.323Z,8.12
2019-05-16T07:01:05.962Z,8.06
2019-05-16T07:02:05.980Z,8.12
2019-05-16T07:03:05.165Z,8.19
2019-05-16T07:04:05.333Z,8.19
2019-05-16T07:05:05.639Z,8.19
2019-05-16T07:06:05.867Z,8.12
2019-05-16T07:07:06.061Z,8.12
2019-05-16T07:08:05.165Z,8.12
2019-05-16T07:09:06.004Z,8.12
2019-05-16T07:10:05.089Z,8.12
2019-05-16T07:11:05.324Z,8.12
2019-05-16T07:12:05.804Z,8.12
2019-05-16T07:13:05.574Z,8.12
2019-05-16T07:14:05.506Z,8.06
2019-05-16T07:15:05.971Z,8.06
2019-05-16T07:16:05.880Z,8.06
2019-05-16T07:17:06.047Z,8.06
2019-05-16T07:18:05.080Z,8.06
2019-05-16T07:19:05.246Z,8.06
2019-05-16T07:20:05.644Z,8.06
2019-05-16T07:21:05.875Z,8.06
2019-05-16T07:22:06.030Z,8.25
2019-05-16T07:23:05.228Z,8.31
2019-05-16T07:24:05.160Z,8.25
2019-05-16T07:25:05.403Z,8.25
2019-05-16T07:26:05.562Z,8.25
2019-05-16T07:27:05.246Z,8.25
2019-05-16T07:28:05.488Z,8.25
2019-05-16T07:29:05.092Z,8.25
2019-05-16T07:30:05.716Z,8.25
2019-05-16T07:31:14.737Z,8.25
2019-05-16T07:32:06.039Z,8.25
2019-05-16T07:33:05.801Z,8.31
2019-05-16T07:34:05.412Z,8.31
2019-05-16T07:35:05.363Z,8.25
2019-05-16T07:36:05.236Z,8.31
2019-05-16T07:37:05.548Z,8.25
2019-05-16T07:38:05.252Z,8.31
2019-05-16T07:39:05.715Z,8.25
2019-05-16T07:40:16.961Z,8.25
2019-05-16T07:41:05.664Z,8.31
2019-05-16T07:42:05.641Z,8.31
2019-05-16T07:43:05.309Z,8.31
2019-05-16T07:44:05.725Z,8.31
2019-05-16T07:45:05.333Z,8.31
2019-05-16T07:46:05.303Z,8.31
2019-05-16T07:47:05.153Z,8.31
2019-05-16T07:48:05.704Z,8.31
2019-05-16T07:49:05.800Z,8.44
2019-05-16T07:50:05.870Z,8.44
2019-05-16T07:51:05.824Z,8.38
2019-05-16T07:52:06.055Z,8.38
2019-05-16T07:53:05.399Z,8.38
2019-05-16T07:54:05.879Z,8.31
2019-05-16T07:55:05.791Z,8.31
2019-05-16T07:56:05.962Z,8.31
2019-05-16T07:57:13.737Z,8.31
2019-05-16T07:58:05.732Z,8.31
2019-05-16T07:59:06.076Z,8.31
2019-05-16T08:00:05.403Z,8.31
2019-05-16T08:01:08.761Z,8.31
2019-05-16T08:02:05.184Z,8.31
2019-05-16T08:03:05.157Z,8.31
2019-05-16T08:04:05.564Z,8.31
2019-05-16T08:05:05.711Z,8.31
2019-05-16T08:06:06.135Z,8.31
2019-05-16T08:07:05.792Z,8.31
2019-05-16T08:08:05.556Z,8.31
2019-05-16T08:09:07.762Z,8.31
2019-05-16T08:10:05.561Z,8.31
2019-05-16T08:11:05.404Z,8.31
2019-05-16T08:12:06.016Z,8.31
2019-05-16T08:13:05.563Z,8.31
2019-05-16T08:14:06.127Z,8.25
2019-05-16T08:15:05.188Z,8.25
2019-05-16T08:16:05.557Z,8.25
2019-05-16T08:17:05.657Z,8.25
2019-05-16T08:18:06.159Z,8.25
2019-05-16T08:19:05.173Z,8.25
2019-05-16T08:20:05.715Z,8.25
2019-05-16T08:21:05.088Z,8.25
2019-05-16T08:22:05.884Z,8.25
2019-05-16T08:23:05.324Z,8.25
2019-05-16T08:24:07.870Z,8.25
2019-05-16T08:25:05.910Z,8.44
2019-05-16T08:26:06.205Z,8.88
2019-05-16T08:27:05.823Z,8.69
2019-05-16T08:28:05.888Z,8.56
2019-05-16T08:29:05.081Z,8.50
2019-05-16T08:30:05.317Z,8.44
2019-05-16T08:31:05.469Z,8.38
2019-05-16T08:32:05.808Z,8.31
2019-05-16T08:33:05.947Z,8.31
2019-05-16T08:34:05.181Z,8.31
2019-05-16T08:35:05.173Z,8.25
2019-05-16T08:36:08.009Z,8.31
2019-05-16T08:37:05.183Z,8.25
2019-05-16T08:38:05.958Z,8.19
2019-05-16T08:39:05.493Z,8.19
2019-05-16T08:40:05.666Z,8.25
2019-05-16T08:41:11.921Z,8.19
2019-05-16T08:42:08.293Z,8.19
2019-05-16T08:43:05.272Z,8.19
2019-05-16T08:44:05.323Z,8.31
2019-05-16T08:45:05.319Z,8.25
2019-05-16T08:46:05.647Z,8.25
2019-05-16T08:47:06.483Z,8.25
2019-05-16T08:48:05.258Z,8.25
2019-05-16T08:49:05.561Z,8.25
2019-05-16T08:50:12.335Z,8.25
2019-05-16T08:51:05.896Z,8.25
2019-05-16T08:52:05.242Z,8.25
2019-05-16T08:53:05.567Z,8.25
2019-05-16T08:54:05.635Z,8.31
2019-05-16T08:55:05.878Z,8.31
2019-05-16T08:56:06.195Z,8.31
2019-05-16T08:57:21.582Z,8.31
2019-05-16T08:58:05.976Z,8.31
2019-05-16T08:59:05.474Z,8.31
2019-05-16T09:00:05.634Z,8.38
2019-05-16T09:01:05.655Z,8.38
2019-05-16T09:02:05.515Z,8.38
2019-05-16T09:03:05.879Z,8.38
2019-05-16T09:04:05.156Z,8.38
2019-05-16T09:05:06.358Z,8.38
2019-05-16T09:06:05.870Z,8.44
2019-05-16T09:07:05.401Z,8.44
2019-05-16T09:08:05.995Z,8.44
2019-05-16T09:09:21.992Z,8.44
2019-05-16T09:10:34.038Z,8.44
2019-05-16T09:11:15.837Z,8.44
2019-05-16T09:12:07.971Z,8.44
2019-05-16T09:13:07.108Z,8.44
2019-05-16T09:14:07.867Z,8.44
2019-05-16T09:15:07.618Z,8.44
2019-05-16T09:16:07.695Z,8.44
2019-05-16T09:17:07.413Z,8.44
2019-05-16T09:18:07.440Z,8.50
2019-05-16T09:19:07.666Z,8.69
2019-05-16T09:20:07.366Z,8.88
2019-05-16T09:21:07.244Z,9.00
2019-05-16T09:22:07.306Z,9.38
2019-05-16T09:23:07.322Z,9.56
2019-05-16T09:24:06.708Z,9.75
2019-05-16T09:25:08.001Z,9.56
2019-05-16T09:26:07.219Z,9.38
2019-05-16T09:27:11.331Z,9.25
2019-05-16T09:28:07.413Z,9.19
2019-05-16T09:29:08.236Z,9.12
2019-05-16T09:30:07.160Z,9.06
2019-05-16T09:31:07.107Z,9.06
2019-05-16T09:32:12.327Z,9.00
2019-05-16T09:33:07.035Z,8.94
2019-05-16T09:34:07.385Z,8.94
2019-05-16T09:35:07.790Z,8.94
2019-05-16T09:36:07.696Z,8.94
2019-05-16T09:37:08.460Z,8.88
2019-05-16T09:38:07.156Z,8.88
2019-05-16T09:39:08.329Z,8.94
2019-05-16T09:40:06.437Z,8.88
2019-05-16T09:41:07.656Z,8.81
2019-05-16T09:42:08.201Z,8.81
2019-05-16T09:43:07.553Z,8.75
2019-05-16T09:44:08.377Z,8.75
2019-05-16T09:45:07.263Z,8.75
2019-05-16T09:46:07.463Z,8.75
2019-05-16T09:47:07.522Z,8.88
2019-05-16T09:48:08.030Z,9.12
2019-05-16T09:49:16.510Z,9.44
2019-05-16T09:50:06.850Z,9.19
2019-05-16T09:51:06.610Z,9.06
2019-05-16T09:52:07.293Z,9.06
2019-05-16T09:53:07.065Z,9.00
2019-05-16T09:54:07.135Z,8.94
2019-05-16T09:55:07.028Z,8.94
2019-05-16T09:56:06.970Z,8.94
2019-05-16T09:57:06.511Z,9.06
2019-05-16T09:58:07.283Z,9.00
2019-05-16T09:59:06.888Z,9.00
2019-05-16T10:00:06.723Z,9.12
2019-05-16T10:01:05.308Z,9.12
2019-05-16T10:02:07.232Z,9.12
2019-05-16T10:03:07.076Z,9.12
2019-05-16T10:04:06.647Z,9.12
2019-05-16T10:05:12.148Z,9.12
2019-05-16T10:06:07.905Z,9.19
2019-05-16T10:07:06.626Z,9.44
2019-05-16T10:08:06.822Z,9.38
2019-05-16T10:09:06.400Z,9.38
2019-05-16T10:10:06.476Z,9.38
2019-05-16T10:11:06.469Z,9.38
2019-05-16T10:12:14.275Z,9.31
2019-05-16T10:13:06.762Z,9.38
2019-05-16T10:14:07.225Z,9.38
2019-05-16T10:15:07.416Z,9.38
2019-05-16T10:16:07.133Z,9.38
2019-05-16T10:17:07.966Z,9.44
2019-05-16T10:18:07.475Z,9.44
2019-05-16T10:19:07.387Z,10.00
2019-05-16T10:20:07.787Z,9.81
2019-05-16T10:21:07.953Z,9.69
2019-05-16T10:22:07.262Z,9.62
2019-05-16T10:23:14.217Z,9.62
2019-05-16T10:24:07.248Z,9.62
2019-05-16T10:25:05.985Z,9.56
2019-05-16T10:26:05.105Z,9.56
2019-05-16T10:27:06.573Z,9.56
2019-05-16T10:28:05.430Z,9.50
2019-05-16T10:29:06.804Z,9.50
2019-05-16T10:30:08.370Z,9.50
2019-05-16T10:31:06.879Z,9.50
2019-05-16T10:32:07.636Z,9.75
2019-05-16T10:33:07.018Z,9.69
2019-05-16T10:34:07.592Z,9.62
2019-05-16T10:35:05.398Z,9.56
2019-05-16T10:36:08.130Z,9.56
2019-05-16T10:37:05.875Z,9.50
2019-05-16T10:38:05.411Z,9.50
2019-05-16T10:39:07.463Z,9.50
2019-05-16T10:40:07.266Z,9.44
2019-05-16T10:41:07.269Z,9.44
2019-05-16T10:42:06.789Z,9.44
2019-05-16T10:43:07.062Z,9.44
2019-05-16T10:44:06.328Z,9.44
2019-05-16T10:45:08.284Z,9.44
2019-05-16T10:46:06.468Z,9.44
2019-05-16T10:47:07.519Z,9.44
2019-05-16T10:48:05.489Z,9.44
2019-05-16T10:49:05.797Z,9.69
2019-05-16T10:50:05.255Z,9.69
2019-05-16T10:51:07.552Z,9.62
2019-05-16T10:52:07.197Z,9.56
2019-05-16T10:53:23.357Z,9.56
2019-05-16T10:54:10.337Z,9.56
2019-05-16T10:55:08.117Z,9.56
2019-05-16T10:56:07.713Z,9.62
2019-05-16T10:57:07.923Z,9.62
2019-05-16T10:58:07.337Z,9.56
2019-05-16T11:00:13.289Z,9.56
2019-05-16T11:01:18.701Z,9.56
2019-05-16T11:02:07.441Z,9.56
2019-05-16T11:03:06.456Z,9.56
2019-05-16T11:04:07.440Z,9.56
2019-05-16T11:05:22.365Z,9.56
2019-05-16T11:06:08.924Z,9.56
2019-05-16T11:07:05.715Z,9.50
2019-05-16T11:08:07.761Z,9.50
2019-05-16T11:09:06.477Z,9.50
2019-05-16T11:10:06.972Z,9.50
2019-05-16T11:11:06.627Z,9.50
2019-05-16T11:12:05.251Z,9.50
2019-05-16T11:13:07.859Z,9.50
2019-05-16T11:14:08.804Z,9.50
2019-05-16T11:15:07.801Z,9.50
2019-05-16T11:16:10.056Z,9.56
2019-05-16T11:17:07.229Z,9.56
2019-05-16T11:18:06.815Z,9.56
2019-05-16T11:19:14.894Z,9.56
2019-05-16T11:20:05.559Z,9.56
2019-05-16T11:21:05.948Z,9.56
2019-05-16T11:22:05.069Z,9.62
2019-05-16T11:23:07.873Z,9.62
2019-05-16T11:24:11.419Z,9.62
2019-05-16T11:25:18.174Z,9.62
2019-05-16T11:26:05.771Z,9.62
2019-05-16T11:27:07.464Z,9.69
2019-05-16T11:28:07.238Z,9.69
2019-05-16T11:29:07.410Z,9.69
2019-05-16T11:30:12.491Z,9.69
2019-05-16T11:31:07.584Z,9.69
2019-05-16T11:32:08.246Z,9.75
2019-05-16T11:33:07.531Z,9.75
2019-05-16T11:34:06.030Z,9.75
2019-05-16T11:35:07.245Z,9.75
2019-05-16T11:36:07.647Z,9.75
2019-05-16T11:37:06.805Z,9.81
2019-05-16T11:38:07.028Z,9.81
2019-05-16T11:39:08.454Z,9.81
2019-05-16T11:40:06.734Z,9.81
2019-05-16T11:41:07.345Z,9.75
2019-05-16T11:42:07.715Z,9.81
2019-05-16T11:43:11.177Z,10.12
2019-05-16T11:44:06.571Z,10.00
2019-05-16T11:45:09.145Z,9.94
2019-05-16T11:46:05.556Z,9.94
2019-05-16T11:47:08.141Z,9.94
2019-05-16T11:48:06.117Z,9.94
2019-05-16T11:49:05.182Z,9.94
2019-05-16T11:50:07.347Z,9.94
2019-05-16T11:51:06.986Z,9.94
2019-05-16T11:52:07.220Z,9.94
2019-05-16T11:53:07.251Z,9.94
2019-05-16T11:54:06.881Z,9.94
2019-05-16T11:55:07.362Z,9.94
2019-05-16T11:56:08.238Z,9.94
2019-05-16T11:57:06.864Z,9.94
2019-05-16T11:58:06.753Z,9.94
2019-05-16T11:59:07.603Z,9.94
2019-05-16T12:00:07.821Z,9.94
2019-05-16T12:01:07.467Z,9.94
2019-05-16T12:02:05.246Z,9.94
2019-05-16T12:03:05.516Z,9.94
2019-05-16T12:04:07.766Z,9.94
2019-05-16T12:05:05.314Z,9.94
2019-05-16T12:06:10.138Z,9.94
2019-05-16T12:07:07.572Z,9.94
2019-05-16T12:08:07.574Z,9.94
2019-05-16T12:09:06.661Z,9.94
2019-05-16T12:10:07.529Z,9.94
2019-05-16T12:11:06.876Z,9.94
2019-05-16T12:12:08.445Z,9.94
2019-05-16T12:13:07.574Z,9.94
2019-05-16T12:14:07.266Z,9.94
2019-05-16T12:15:07.589Z,9.94
2019-05-16T12:16:07.493Z,9.94
2019-05-16T12:17:07.394Z,10.00
2019-05-16T12:18:08.465Z,10.00
2019-05-16T12:19:06.845Z,10.00
2019-05-16T12:20:07.740Z,10.00
2019-05-16T12:21:07.521Z,10.00
2019-05-16T12:22:07.008Z,10.06
2019-05-16T12:23:07.902Z,10.12
2019-05-16T12:24:07.373Z,10.12
2019-05-16T12:25:08.091Z,10.12
2019-05-16T12:26:07.686Z,10.12
2019-05-16T12:27:08.178Z,10.19
2019-05-16T12:28:08.055Z,10.25
2019-05-16T12:29:06.949Z,10.25
2019-05-16T12:30:12.832Z,10.25
2019-05-16T12:31:07.106Z,10.25
2019-05-16T12:32:07.508Z,10.25
2019-05-16T12:33:07.261Z,10.25
2019-05-16T12:34:09.375Z,10.25
2019-05-16T12:35:06.427Z,10.25
2019-05-16T12:36:07.257Z,10.25
2019-05-16T12:37:07.371Z,10.25
2019-05-16T12:38:08.009Z,10.25
2019-05-16T12:39:07.757Z,10.25
2019-05-16T12:40:05.492Z,10.31
2019-05-16T12:41:07.090Z,10.31
2019-05-16T12:42:08.323Z,10.31
2019-05-16T12:43:07.489Z,10.25
2019-05-16T12:44:07.533Z,10.25
2019-05-16T12:45:06.974Z,10.25
2019-05-16T12:46:07.413Z,10.25
2019-05-16T12:47:07.363Z,10.25
2019-05-16T12:48:06.776Z,10.25
2019-05-16T12:49:06.995Z,10.25
2019-05-16T12:50:07.215Z,10.25
2019-05-16T12:51:08.246Z,10.25
2019-05-16T12:52:06.722Z,10.25
2019-05-16T12:53:07.979Z,10.25
2019-05-16T12:54:07.507Z,10.25
2019-05-16T12:55:06.150Z,10.25
2019-05-16T12:56:05.500Z,10.19
2019-05-16T12:57:05.654Z,10.25
2019-05-16T12:58:12.169Z,10.25
2019-05-16T12:59:05.332Z,10.25
2019-05-16T13:00:07.356Z,10.25
2019-05-16T13:01:07.667Z,10.25
2019-05-16T13:02:07.160Z,10.25
2019-05-16T13:03:07.123Z,10.25
2019-05-16T13:04:05.566Z,10.25
2019-05-16T13:05:06.946Z,10.31
2019-05-16T13:06:05.979Z,10.31
2019-05-16T13:07:09.096Z,10.31
2019-05-16T13:08:05.116Z,10.31
2019-05-16T13:09:06.941Z,10.38
2019-05-16T13:10:06.549Z,10.38
2019-05-16T13:11:07.045Z,10.38
2019-05-16T13:12:06.850Z,10.38
2019-05-16T13:13:07.718Z,10.38
2019-05-16T13:14:07.741Z,10.44
2019-05-16T13:15:07.009Z,10.44
2019-05-16T13:16:07.484Z,10.44
2019-05-16T13:17:07.218Z,10.50